Airfield :
LOGIN :

Register | Disclaimer

   EN    FR    IT 

 










Legend :    VFR   Marginal VFR   IFR   Intensive IFR   Very Intensive IFR
Visi :
Ceiling :
>= 8 km
>= 3000ft
5 to 8 km
1000 to 3000 ft
1500m to 5 km
500 to 1000 ft
800 to 1500m
200 to 500 ft
< 800m
< 200 ft
Symbols :   Thunderstorms  Fog  Heavy snow  Heavy precipitations  Wind > 20 kt
SIGMETs :     Misc.  Thunderstorms  Icing  Turbulence  Mountain Waves  Volcanic Ashes






- Airport Elevation : 1363 ft


ETIC - Grafenwohr Army Air Field

CURRENT METAR :
  • 090856Z AUTO 21005KT 9999 M 07/03 A2961 RMK AO2 SLP035 T00660029 57006 $

EXPIRED METARs :
  • 090756Z AUTO 21005KT 9999 M 05/03 A2961 RMK AO2 SLPNO T00480028 $
  • 090656Z AUTO 23005KT 9999 FEW026 FEW033 05/03 A2962 RMK AO2 RAE02DZB02E03DZB12E15 SLP040 P0000 T00540027 $

TAF TAF ETIC
Valid from the 09 at 06:00 until the 10 at 12:00 UTC


090612Z 0906/1012 19012KT 9000 -SHRA SCT030 QNH2958INS
BECMG 0910/0911 19010G15KT 9000 -SHRA SCT015 BKN025 QNH2956INS
BECMG 0913/0914 23012KT 9000 -SHRA SCT010 BKN020 QNH2958INS
BECMG 0922/0923 32009KT 8000 -SHRA BKN010 QNH2959INS
BECMG 1001/1002 31009KT 8000 -RASN BKN008 QNH2991INS
BECMG 1006/1007 VRB05KT 9999 NSW BKN010 QNH3005INS TX09/0912Z TN01/1004Z



MET'MAP, your aeronautical weather chart ! - Copyright ORBIFLY December 2007 - Disclaimer

ORBIFLY MET'MAP TEAM :

Programming & Development : Alexandra Zaïnal
Concept & original design : Baudouin d'Aumeries
Assistance for programming : Marc-Olivier Méhu
Technical & hardware support : Manuel Goepfert

Contact : metmap@orbifly.com




SOURCES & CREDITS :

   NOAA